White Mountain Summit Weather observations

Data are for 10 minute period ending at time listed.
 Day   Time   Solar   Ave.   Ave.  Ave.  Vector    Max.    Baro.  
  of    of     Rad.   Air    Rel.  Wind   Wind     Wind   Press.  
Year   Day            Temp.  Hum.  Speed  Dir.     Gust           
2014   (PST)   W/m2    F      %     mph   deg.      mph     mb.   
-------------------------------------------------------------------
 259   13:30    0.0    52   40.5    20    265.1    25.9   999.0 
 259   13:40    0.0    50   42.7    22    262.2    35.3   999.0 
 259   13:50    0.0    50   43.7    28    265.2    42.4   999.0 
 259   14:00    0.0    52   41.5    23    265.4    33.0   999.0 
 259   14:10    0.0    52   41.1    27    264.9    33.0   999.0 
 259   14:20    0.0    52   41.3    27    265.0    40.0   999.0 
 259   14:30    0.0    53   40.7    29    264.2    40.0   999.0 
 259   14:40    0.0    52   40.7    27    265.7    33.0   999.0 
 259   14:50    0.0    51   42.4    27    265.9    37.7   999.0 
 259   15:00    0.0    50   43.4    28    265.7    35.3   999.0 
 259   15:10    0.0    50   43.1    21    269.8    28.2   999.0 
 259   15:20    0.0    50   43.2    23    268.2    30.6   999.0 
 259   15:30    0.0    51   41.2    26    265.7    40.0   999.0 
 259   15:40    0.0    52   40.6    27    265.5    35.3   999.0 
 259   15:50    0.0    51   41.9    29    265.2    40.0   999.0 
 259   16:00    0.0    51   43.3    23    264.4    30.6   999.0 
 259   16:10    0.0    51   42.5    22    265.7    30.6   999.0 
 259   16:20    0.0    52   41.4    26    264.5    35.3   999.0 
 259   16:30    0.0    51   43.6    27    264.7    35.3   999.0 
 259   16:40    0.0    51   42.7    26    263.9    35.3   999.0 
 259   16:50    0.0    51   43.8    24    263.6    33.0   999.0 
 259   17:00    0.0    51   44.2    23    263.8    30.6   999.0 
 259   17:10    0.0    51   44.3    16    283.9    21.2   999.0 
 259   17:20    0.0    50   45.8    24    261.7    35.3   999.0 
 259   17:30    0.0    50   47.3    22    265.2    30.6   999.0 
 259   17:40    0.0    49   48.1    19    262.0    25.9   999.0 
 259   17:50    0.0    49   49.8    20    265.1    23.5   999.0 
 259   18:00    0.0    48   51.2    16    264.8    21.2   999.0 
 259   18:10    0.0    47   54.1    16    257.5    21.2   999.0 
 259   18:20    0.0    46   55.6    17    264.1    23.5   999.0 
 259   18:30    0.0    46   57.0    19    268.6    23.5   999.0 
 259   18:40    0.0    45   58.8    15    252.9    21.2   999.0 
 259   18:50    0.0    45   60.8    17    262.9    21.2   999.0 
 259   19:00    0.0    44   62.8    13    244.9    18.8   999.0 
 259   19:10    0.0    43   63.8    17    258.2    21.2   999.0 
 259   19:20    0.0    43   64.7    14    248.7    18.8   999.0 
 259   19:30    0.0    41   68.9    10    217.6    16.5   999.0 
 259   19:40    0.0    40   70.8     9    214.8    11.8   999.0 
 259   19:50    0.0    40   72.7    12    209.6    16.5   999.0 
 259   20:00    0.0    40   74.9    12    211.7    14.1   999.0 
 259   20:10    0.0    40   75.4    12    217.8    14.1   999.0 
 259   20:20    0.0    40   76.3    15    216.8    21.2   999.0 
 259   20:30    0.0    40   77.1    14    217.2    16.5   999.0 
 259   20:40    0.0    39   78.3    16    229.2    18.8   999.0 
 259   20:50    0.0    39   79.0    15    228.5    18.8   999.0 
 259   21:00    0.0    39   80.2    13    223.9    18.8   999.0 
 259   21:10    0.0    39   80.1    12    229.8    18.8   999.0 
 259   21:20    0.0    39   81.0    11    212.1    16.5   999.0 
 259   21:30    0.0    39   81.7    15    223.5    21.2   999.0 
 259   21:40    0.0    38   83.2    15    215.7    21.2   999.0 
 259   21:50    0.0    38   84.2    14    210.8    18.8   999.0 
 259   22:00    0.0    38   83.4    15    197.4    18.8   999.0 
 259   22:10    0.0    38   79.7    15    188.1    18.8   999.0 
 259   22:20    0.0    38   78.9    16    175.7    21.2   999.0 
 259   22:30    0.0    38   79.0    16    180.1    21.2   999.0 
 259   22:40    0.0    38   78.5    16    170.7    21.2   999.0 
 259   22:50    0.0    38   78.2    16    164.5    28.2   999.0 
 259   23:00    0.0    38   78.3    15    172.2    21.2   999.0 
 259   23:10    0.0    38   78.9    14    189.6    25.9   999.0 
 259   23:20    0.0    38   80.1    17    215.4    23.5   999.0 
 259   23:30    0.0    38   80.4    14    236.9    21.2   999.0 
 259   23:40    0.0    38   81.1    14    210.9    21.2   999.0 
 259   23:50    0.0    38   81.6    15    228.7    21.2   999.0 
 260    0:00    0.0    37   82.6    16    227.7    21.2   999.0 
 260    0:10    0.0    37   83.0    18    238.1    28.2   999.0 
 260    0:20    0.0    37   83.6    18    235.1    30.6   999.0 
 260    0:30    0.0    37   84.5    17    225.2    25.9   999.0 
 260    0:40    0.0    37   85.2    16    212.7    28.2   999.0 
 260    0:50    0.0    37   86.5    19    226.7    28.2   999.0 
 260    1:00    0.0    36   87.3    18    221.4    25.9   999.0 
 260    1:10    0.0    36   87.3    19    226.2    28.2   999.0 
 260    1:20    0.0    36   87.3    19    229.3    25.9   999.0 
 260    1:30    0.0    36   87.2    20    224.9    28.2   999.0 
 260    1:40    0.0    36   86.7    20    228.4    28.2   999.0 
 260    1:50    0.0    36   86.0    22    228.6    30.6   999.0 
 260    2:00    0.0    36   85.9    24    228.3    33.0   999.0 
 260    2:10    0.0    36   86.2    26    229.8    33.0   999.0 
 260    2:20    0.0    36   86.3    25    230.4    33.0   999.0 
 260    2:30    0.0    36   85.8    26    231.1    35.3   999.0 
 260    2:40    0.0    36   85.5    24    228.2    28.2   999.0 
 260    2:50    0.0    36   85.3    26    244.6    42.4   999.0 
 260    3:00    0.0    36   85.0    29    242.3    40.0   999.0 
 260    3:10    0.0    35   85.1    27    244.9    37.7   999.0 
 260    3:20    0.0    35   85.2    27    242.3    37.7   999.0 
 260    3:30    0.0    35   84.3    24    235.1    33.0   999.0 
 260    3:40    0.0    35   84.1    24    239.2    30.6   999.0 
 260    3:50    0.0    35   83.1    26    240.2    35.3   999.0 
 260    4:00    0.0    35   84.4    27    240.9    37.7   999.0 
 260    4:10    0.0    35   84.8    25    239.5    33.0   999.0 
 260    4:20    0.0    34   85.8    24    235.4    30.6   999.0 
 260    4:30    0.0    35   83.9    26    233.0    35.3   999.0 
 260    4:40    0.0    35   85.6    24    232.5    35.3   999.0 
 260    4:50    0.0    34   87.4    24    234.2    33.0   999.0 
 260    5:00    0.0    34   87.2    25    234.4    33.0   999.0 
 260    5:10    0.0    34   86.4    25    230.0    33.0   999.0 
 260    5:20    0.0    34   86.1    24    233.3    33.0   999.0 
 260    5:30    0.0    34   86.8    24    228.9    30.6   999.0 
 260    5:40    0.0    34   86.9    23    232.3    30.6   999.0 
 260    5:50    0.0    34   86.9    22    232.2    28.2   999.0 
 260    6:00    0.0    34   86.1    25    235.4    33.0   999.0 
 260    6:10    0.0    34   85.5    24    232.8    37.7   999.0 
 260    6:20    0.0    34   84.3    22    231.2    28.2   999.0 
 260    6:30    0.0    34   83.5    23    235.2    28.2   999.0 
 260    6:40    0.0    34   83.2    23    238.1    30.6   999.0 
 260    6:50    0.0    34   83.7    23    231.0    30.6   999.0 
 260    7:00    0.0    34   82.2    25    246.2    30.6   999.0 
 260    7:10    0.0    34   81.7    22    238.5    28.2   999.0 
 260    7:20    0.0    34   81.2    19    233.9    25.9   999.0 
 260    7:30    0.0    34   80.8    18    227.8    21.2   999.0 
 260    7:40    0.0    34   80.9    19    227.8    21.2   999.0 
 260    7:50    0.0    35   80.4    20    227.0    25.9   999.0 
 260    8:00    0.0    35   78.1    21    217.4    23.5   999.0 
 260    8:10    0.0    36   73.8    21    220.9    30.6   999.0 
 260    8:20    0.0    36   71.7    22    222.2    25.9   999.0 
 260    8:30    0.0    36   70.1    20    226.0    25.9   999.0 
 260    8:40    0.0    36   70.0    20    228.0    30.6   999.0 
 260    8:50    0.0    37   67.9    20    231.4    35.3   999.0 
 260    9:00    0.0    37   64.8    22    231.8    33.0   999.0 
 260    9:10    0.0    38   63.3    18    231.4    25.9   999.0 
 260    9:20    0.0    38   63.3    22    229.1    30.6   999.0 
 260    9:30    0.0    38   62.3    20    232.7    35.3   999.0 
 260    9:40    0.0    39   57.8    20    224.0    33.0   999.0 
 260    9:50    0.0    39   57.9    21    229.9    30.6   999.0 
 260   10:00    0.0    39   58.0    20    229.0    30.6   999.0 
 260   10:10    0.0    39   59.2    19    231.1    33.0   999.0 
 260   10:20    0.0    40   59.8    20    234.3    25.9   999.0 
 260   10:30    0.0    41   58.0    16    228.6    25.9   999.0 
 260   10:40    0.0    42   56.9    20    239.5    35.3   999.0 
 260   10:50    0.0    41   57.3    21    233.1    33.0   999.0 
 260   11:00    0.0    42   56.4    18    239.1    30.6   999.0 
 260   11:10    0.0    42   57.1    19    239.4    28.2   999.0 
 260   11:20    0.0    42   58.7    18    241.4    30.6   999.0 
 260   11:30    0.0    43   60.5    18    250.6    25.9   999.0 
 260   11:40    0.0    45   58.8    20    257.0    33.0   999.0 
 260   11:50    0.0    46   55.3    23    258.7    33.0   999.0 
 260   12:00    0.0    45   58.0    23    262.7    37.7   999.0 
 260   12:10    0.0    45   58.8    23    254.5    35.3   999.0 
 260   12:20    0.0    45   59.5    23    258.6    33.0   999.0 
 260   12:30    0.0    45   59.9    28    264.3    35.3   999.0 
 260   12:40    0.0    46   59.5    29    265.8    35.3   999.0 
 260   12:50    0.0    46   59.4    24    260.9    35.3   999.0 
 260   13:00    0.0    46   59.9    28    263.8    35.3   999.0 
 260   13:10    0.0    45   60.3    29    261.7    40.0   999.0 
 260   13:20    0.0    45   60.4    28    261.8    42.4   999.0 

Return to White Mountain graphs page.


Western Regional Climate Center,wrcc@dri.edu